Time;durP1;ratioP1;P1;durP2;ratioP2;P2;SDS_P1;SDS_P2;PMS_P1;PMS_P2;Temp;Humidity;BMP_temperature;BMP_pressure;BME280_temperature;BME280_humidity;BME280_pressure;Samples;Min_cycle;Max_cycle;Signal;HPM_P1;HPM_P2
2022/03/15 00:00:58;;;;;;;14.43;6.03;;;4.80;99.90;;;;;;4983806;28;38183;-74
2022/03/15 00:03:24;;;;;;;12.53;5.87;;;4.70;99.90;;;;;;4981045;28;37652;-75
2022/03/15 00:05:50;;;;;;;12.93;5.53;;;4.70;99.90;;;;;;4977826;28;38480;-74
2022/03/15 00:08:19;;;;;;;12.13;5.73;;;4.70;99.90;;;;;;4967213;28;38153;-74
2022/03/15 00:10:47;;;;;;;12.87;5.37;;;4.60;99.90;;;;;;4980763;28;37912;-74
2022/03/15 00:13:13;;;;;;;20.33;5.83;;;4.60;99.90;;;;;;4984771;28;37222;-74
2022/03/15 00:15:41;;;;;;;14.47;5.60;;;4.60;99.90;;;;;;4983750;28;40128;-74
2022/03/15 00:18:07;;;;;;;14.67;5.33;;;4.60;99.90;;;;;;4984817;28;39153;-74
2022/03/15 00:20:34;;;;;;;12.70;5.50;;;4.60;99.90;;;;;;4979425;28;37831;-74
2022/03/15 00:23:00;;;;;;;12.30;5.57;;;4.70;99.90;;;;;;4984155;28;37078;-74
2022/03/15 00:25:27;;;;;;;11.80;5.23;;;4.70;99.90;;;;;;4984488;28;47731;-74
2022/03/15 00:27:55;;;;;;;15.03;6.43;;;4.70;99.90;;;;;;4984405;28;38622;-74
2022/03/15 00:30:23;;;;;;;15.80;5.63;;;4.70;99.90;;;;;;4983064;28;38170;-74
2022/03/15 00:32:49;;;;;;;12.57;5.20;;;4.70;99.90;;;;;;4983876;28;37660;-74
2022/03/15 00:35:17;;;;;;;12.23;5.53;;;4.70;99.90;;;;;;4979258;28;40396;-74
2022/03/15 00:37:44;;;;;;;15.03;5.93;;;4.70;99.90;;;;;;4986069;28;38804;-74
2022/03/15 00:40:12;;;;;;;10.50;4.93;;;4.70;99.90;;;;;;4978360;28;38098;-75
2022/03/15 00:42:38;;;;;;;13.93;4.90;;;4.70;99.90;;;;;;4983004;28;37383;-74
2022/03/15 00:45:05;;;;;;;13.87;5.10;;;4.80;99.90;;;;;;4982401;28;39818;-74
2022/03/15 00:47:31;;;;;;;12.20;5.33;;;4.80;99.90;;;;;;4984480;28;39116;-74
2022/03/15 00:49:57;;;;;;;13.60;4.60;;;4.80;99.90;;;;;;4979804;28;38696;-74
2022/03/15 00:52:24;;;;;;;14.33;4.87;;;4.80;99.90;;;;;;4984311;28;36043;-74
2022/03/15 00:54:50;;;;;;;12.73;6.43;;;4.80;99.90;;;;;;4957992;28;40543;-75
2022/03/15 00:57:18;;;;;;;13.53;5.30;;;4.80;99.90;;;;;;4965640;28;39218;-74
2022/03/15 00:59:44;;;;;;;13.13;5.43;;;4.80;99.90;;;;;;4962013;28;38960;-74
2022/03/15 01:02:10;;;;;;;12.53;5.60;;;4.90;99.90;;;;;;4972925;28;37624;-74
2022/03/15 01:04:36;;;;;;;15.07;5.53;;;4.90;99.90;;;;;;4960666;28;40412;-74
2022/03/15 01:07:03;;;;;;;13.93;6.27;;;4.90;99.90;;;;;;4960673;28;38233;-74
2022/03/15 01:09:29;;;;;;;12.23;4.83;;;4.90;99.90;;;;;;4965029;28;38898;-74
2022/03/15 01:11:56;;;;;;;11.40;5.00;;;4.90;99.90;;;;;;4962839;28;37592;-74
2022/03/15 01:14:22;;;;;;;9.93;4.90;;;4.80;99.90;;;;;;4966305;28;38943;-74
2022/03/15 01:16:48;;;;;;;14.97;5.87;;;4.80;99.90;;;;;;4961876;28;39779;-74
2022/03/15 01:19:16;;;;;;;9.83;5.20;;;4.80;99.90;;;;;;4960557;28;38867;-74
2022/03/15 01:21:42;;;;;;;18.77;5.43;;;4.90;99.90;;;;;;4978920;28;37451;-74
2022/03/15 01:24:09;;;;;;;15.97;5.53;;;4.90;99.90;;;;;;4976514;28;37362;-74
2022/03/15 01:26:37;;;;;;;10.43;5.20;;;4.90;99.90;;;;;;4965363;28;38317;-74
2022/03/15 01:29:04;;;;;;;10.53;5.50;;;5.00;99.90;;;;;;4960877;28;38392;-75
2022/03/15 01:31:30;;;;;;;11.67;5.60;;;5.10;99.90;;;;;;4961701;28;38832;-72
2022/03/15 01:33:56;;;;;;;15.67;5.83;;;5.10;99.90;;;;;;4958688;28;39056;-73
2022/03/15 01:36:23;;;;;;;9.47;5.13;;;5.10;99.90;;;;;;4980388;28;39342;-77
2022/03/15 01:38:52;;;;;;;16.33;6.13;;;5.10;99.90;;;;;;4962333;28;38127;-75
2022/03/15 01:41:19;;;;;;;10.83;5.53;;;5.20;99.90;;;;;;4979057;28;37370;-74
2022/03/15 01:43:47;;;;;;;16.73;6.10;;;5.20;99.90;;;;;;4965251;28;38257;-74
2022/03/15 01:46:19;;;;;;;9.00;5.10;;;5.20;99.90;;;;;;4961076;28;38686;-73
2022/03/15 01:48:45;;;;;;;11.00;5.68;;;5.30;99.90;;;;;;4964548;28;38084;-75
2022/03/15 01:51:16;;;;;;;14.73;5.97;;;5.30;99.90;;;;;;4962974;28;37197;-74
2022/03/15 01:53:42;;;;;;;13.63;5.90;;;5.30;99.90;;;;;;4975297;28;37652;-74
2022/03/15 01:56:08;;;;;;;9.13;5.10;;;5.30;99.90;;;;;;4978832;28;38219;-74
2022/03/15 01:58:34;;;;;;;14.30;5.93;;;5.30;99.90;;;;;;4976875;28;38120;-75
2022/03/15 02:01:01;;;;;;;10.83;5.33;;;5.40;99.90;;;;;;4984669;28;36820;-75
2022/03/15 02:03:27;;;;;;;13.97;5.60;;;5.40;99.90;;;;;;4982549;28;47710;-74
2022/03/15 02:05:53;;;;;;;14.60;6.73;;;5.40;99.90;;;;;;4960421;28;38708;-74
2022/03/15 02:08:19;;;;;;;11.93;5.60;;;5.40;99.90;;;;;;4960385;28;40027;-74
2022/03/15 02:10:45;;;;;;;14.50;5.83;;;5.40;99.90;;;;;;4978732;28;36744;-73
2022/03/15 02:13:11;;;;;;;13.70;5.83;;;5.40;99.90;;;;;;4980972;28;38840;-74
2022/03/15 02:15:38;;;;;;;18.07;6.43;;;5.40;99.90;;;;;;4980779;28;38390;-74
2022/03/15 02:18:05;;;;;;;11.23;5.80;;;5.40;99.90;;;;;;4978160;28;38380;-74
2022/03/15 02:20:31;;;;;;;12.33;6.20;;;5.40;99.90;;;;;;4976781;28;37759;-74
2022/03/15 02:22:57;;;;;;;11.37;6.80;;;5.40;99.90;;;;;;4963959;28;40186;-74
2022/03/15 02:25:24;;;;;;;16.03;7.20;;;5.40;99.90;;;;;;4982114;28;39491;-74
2022/03/15 02:27:52;;;;;;;16.37;6.47;;;5.40;99.90;;;;;;4984694;28;38762;-74
2022/03/15 02:30:21;;;;;;;15.33;6.67;;;5.40;99.90;;;;;;4980655;28;37202;-74
2022/03/15 02:32:48;;;;;;;14.70;6.40;;;5.40;99.90;;;;;;4984583;28;39710;-74
2022/03/15 02:35:15;;;;;;;10.87;5.73;;;5.30;99.90;;;;;;4981921;28;38052;-74
2022/03/15 02:37:42;;;;;;;14.17;6.40;;;5.30;99.90;;;;;;4984369;28;39230;-74
2022/03/15 02:40:09;;;;;;;13.97;6.73;;;5.30;99.90;;;;;;4982132;28;37138;-74
2022/03/15 02:42:35;;;;;;;18.17;7.30;;;5.30;99.90;;;;;;4983404;28;37493;-74
2022/03/15 02:45:02;;;;;;;14.00;7.67;;;5.30;99.90;;;;;;4965676;28;39434;-74
2022/03/15 02:47:28;;;;;;;11.27;6.50;;;5.30;99.90;;;;;;4984443;28;38737;-74
2022/03/15 02:49:54;;;;;;;15.50;7.63;;;5.40;99.90;;;;;;4984153;28;37064;-74
2022/03/15 02:52:20;;;;;;;18.20;7.10;;;5.30;99.90;;;;;;4982485;28;38390;-74
2022/03/15 02:54:46;;;;;;;16.30;7.43;;;5.30;99.90;;;;;;4965195;28;38926;-74
2022/03/15 02:57:12;;;;;;;16.60;7.47;;;5.30;99.90;;;;;;4967697;28;38298;-74
2022/03/15 02:59:39;;;;;;;15.37;7.40;;;5.30;99.90;;;;;;4963845;28;37926;-74
2022/03/15 03:02:07;;;;;;;15.27;7.60;;;5.30;99.90;;;;;;4964600;28;40349;-73
2022/03/15 03:04:33;;;;;;;19.33;7.83;;;5.40;99.90;;;;;;4980321;28;38892;-75
2022/03/15 03:07:01;;;;;;;16.83;8.43;;;5.30;99.90;;;;;;4963327;28;38262;-74
2022/03/15 03:09:28;;;;;;;13.97;7.67;;;5.30;99.90;;;;;;4980903;28;47480;-74
2022/03/15 03:11:57;;;;;;;16.57;7.93;;;5.30;99.90;;;;;;4964277;28;39374;-74
2022/03/15 03:14:29;;;;;;;14.10;7.27;;;5.30;99.90;;;;;;4960826;28;40136;-74
2022/03/15 03:16:55;;;;;;;18.40;8.83;;;5.40;99.90;;;;;;4979194;28;38583;-74
2022/03/15 03:19:22;;;;;;;17.33;9.57;;;5.40;99.90;;;;;;4979676;28;37035;-74
2022/03/15 03:21:49;;;;;;;15.83;8.30;;;5.40;99.90;;;;;;4971256;28;39067;-75
2022/03/15 03:24:21;;;;;;;14.87;8.03;;;5.40;99.90;;;;;;4976819;28;38731;-74
2022/03/15 03:26:47;;;;;;;19.23;9.73;;;5.40;99.90;;;;;;4966766;28;38390;-74
2022/03/15 03:29:16;;;;;;;21.10;9.37;;;5.40;99.90;;;;;;4963748;28;38363;-74
2022/03/15 03:31:43;;;;;;;22.37;9.83;;;5.50;99.90;;;;;;4967451;28;38849;-75
2022/03/15 03:34:11;;;;;;;17.90;10.37;;;5.50;99.90;;;;;;4962715;28;39318;-74
2022/03/15 03:36:41;;;;;;;19.33;10.00;;;5.50;99.90;;;;;;4963810;28;38183;-74
2022/03/15 03:39:07;;;;;;;16.70;8.73;;;5.50;99.90;;;;;;4969855;28;36606;-74
2022/03/15 03:41:37;;;;;;;15.03;8.83;;;5.50;99.90;;;;;;4963016;28;37512;-74
2022/03/15 03:44:07;;;;;;;22.97;10.73;;;5.50;99.90;;;;;;4939653;28;38623;-74
2022/03/15 03:46:33;;;;;;;20.27;11.00;;;5.40;99.90;;;;;;4966642;28;38262;-74
2022/03/15 03:49:02;;;;;;;24.87;11.50;;;5.40;99.90;;;;;;4955338;28;37649;-74
2022/03/15 03:51:28;;;;;;;25.27;11.93;;;5.40;99.90;;;;;;4961157;28;48595;-74
2022/03/15 03:53:54;;;;;;;24.03;12.33;;;5.50;99.90;;;;;;4964080;28;38912;-75
2022/03/15 03:56:20;;;;;;;19.63;11.00;;;5.40;99.90;;;;;;4959420;28;39667;-75
2022/03/15 03:58:46;;;;;;;19.00;11.80;;;5.40;99.90;;;;;;4981736;28;37531;-75
2022/03/15 04:01:12;;;;;;;22.30;12.37;;;5.40;99.90;;;;;;4952201;28;40365;-74
2022/03/15 04:03:38;;;;;;;26.43;12.23;;;5.40;99.90;;;;;;4951753;28;37898;-75
2022/03/15 04:06:06;;;;;;;18.03;11.43;;;5.40;99.90;;;;;;4966351;28;39507;-75
2022/03/15 04:08:32;;;;;;;27.60;12.67;;;5.50;99.90;;;;;;4984076;28;37088;-74
2022/03/15 04:10:59;;;;;;;25.20;12.77;;;5.50;99.90;;;;;;4975494;28;39668;-74
2022/03/15 04:13:26;;;;;;;20.30;11.03;;;5.50;99.90;;;;;;4983775;28;38937;-74
2022/03/15 04:15:53;;;;;;;20.17;12.43;;;5.50;99.90;;;;;;4973626;28;37885;-75
2022/03/15 04:18:19;;;;;;;20.17;11.43;;;5.50;99.90;;;;;;4961008;28;37718;-75
2022/03/15 04:20:45;;;;;;;22.60;10.37;;;5.50;99.90;;;;;;4967219;28;39824;-74
2022/03/15 04:23:11;;;;;;;18.63;11.20;;;5.40;99.90;;;;;;4969055;28;38408;-74
2022/03/15 04:25:38;;;;;;;20.90;11.30;;;5.40;99.90;;;;;;4986676;28;40147;-75
2022/03/15 04:28:05;;;;;;;19.20;12.17;;;5.40;99.90;;;;;;4985594;28;37969;-74
2022/03/15 04:30:32;;;;;;;24.07;12.13;;;5.40;99.90;;;;;;4978766;28;38750;-74
2022/03/15 04:33:01;;;;;;;20.63;12.07;;;5.40;99.90;;;;;;4985960;28;39519;-74
2022/03/15 04:35:29;;;;;;;25.17;12.27;;;5.40;99.90;;;;;;4985841;28;47580;-74
2022/03/15 04:37:56;;;;;;;25.63;12.07;;;5.40;99.90;;;;;;4963812;28;37224;-74
2022/03/15 04:40:22;;;;;;;26.93;13.83;;;5.40;99.90;;;;;;4959024;28;37485;-75
2022/03/15 04:42:49;;;;;;;22.07;12.27;;;5.40;99.90;;;;;;4984700;28;38452;-74
2022/03/15 04:45:16;;;;;;;20.70;12.50;;;5.40;99.90;;;;;;4976461;28;39267;-74
2022/03/15 04:47:42;;;;;;;24.13;12.83;;;5.40;99.90;;;;;;4980266;28;37576;-74
2022/03/15 04:50:10;;;;;;;31.33;14.23;;;5.40;99.90;;;;;;4981820;28;38230;-74
2022/03/15 04:52:36;;;;;;;24.47;13.67;;;5.40;99.90;;;;;;4969504;28;38157;-74
2022/03/15 04:55:06;;;;;;;26.13;14.17;;;5.40;99.90;;;;;;4975066;28;39981;-74
2022/03/15 04:57:33;;;;;;;23.87;13.20;;;5.40;99.90;;;;;;4981742;28;38926;-74
2022/03/15 04:59:59;;;;;;;34.90;17.30;;;5.40;99.90;;;;;;4962258;28;39114;-74
2022/03/15 05:02:26;;;;;;;25.80;16.57;;;5.40;99.90;;;;;;4961041;28;38833;-74
2022/03/15 05:04:55;;;;;;;26.03;15.77;;;5.40;99.90;;;;;;4976839;28;37693;-75
2022/03/15 05:07:21;;;;;;;35.77;18.43;;;5.40;99.90;;;;;;4979873;28;38863;-74
2022/03/15 05:12:32;;;;;;;30.70;18.87;;;5.50;99.90;;;;;;4964491;28;49447;-75
2022/03/15 05:14:58;;;;;;;31.80;17.83;;;5.50;99.90;;;;;;4963231;28;39775;-75
2022/03/15 05:17:24;;;;;;;26.20;16.13;;;5.50;99.90;;;;;;4963744;28;37414;-74
2022/03/15 05:19:50;;;;;;;27.17;16.00;;;5.50;99.90;;;;;;4961368;28;39747;-74
2022/03/15 05:22:17;;;;;;;33.20;18.43;;;5.50;99.90;;;;;;4961321;28;36900;-74
2022/03/15 05:24:43;;;;;;;32.30;17.63;;;5.50;99.90;;;;;;4961709;28;39214;-75
2022/03/15 05:27:09;;;;;;;31.97;18.17;;;5.50;99.90;;;;;;4962092;28;38112;-74
2022/03/15 05:29:36;;;;;;;31.43;17.47;;;5.50;99.90;;;;;;4964315;28;38508;-74
2022/03/15 05:32:03;;;;;;;29.67;19.33;;;5.50;99.90;;;;;;4978770;28;37419;-74
2022/03/15 05:34:29;;;;;;;34.17;19.60;;;5.50;99.90;;;;;;4960588;28;37079;-74
2022/03/15 05:36:55;;;;;;;36.73;20.50;;;5.60;99.90;;;;;;4963884;28;36143;-75
2022/03/15 05:39:21;;;;;;;28.60;19.73;;;5.50;99.90;;;;;;4961361;28;40407;-74
2022/03/15 05:41:48;;;;;;;34.50;22.07;;;5.60;99.90;;;;;;4972591;28;39693;-74
2022/03/15 05:44:14;;;;;;;37.50;21.77;;;5.50;99.90;;;;;;4960691;28;38315;-75
2022/03/15 05:46:40;;;;;;;34.83;20.23;;;5.50;99.90;;;;;;4961989;28;37402;-75
2022/03/15 05:49:06;;;;;;;32.87;20.30;;;5.50;99.90;;;;;;4969083;28;38969;-74
2022/03/15 05:51:32;;;;;;;32.87;18.80;;;5.60;99.90;;;;;;4965327;28;39631;-74
2022/03/15 05:53:58;;;;;;;30.43;20.83;;;5.60;99.90;;;;;;4980315;28;38411;-74
2022/03/15 05:56:24;;;;;;;32.07;20.53;;;5.60;99.90;;;;;;4984779;28;39001;-74
2022/03/15 05:58:51;;;;;;;34.67;21.20;;;5.60;99.90;;;;;;4977188;28;38932;-75
2022/03/15 06:01:20;;;;;;;40.03;22.40;;;5.60;99.90;;;;;;4984042;28;39027;-74
2022/03/15 06:03:49;;;;;;;30.20;20.63;;;5.60;99.90;;;;;;4976867;28;38024;-74
2022/03/15 06:06:16;;;;;;;36.80;20.77;;;5.60;99.90;;;;;;4969406;28;40575;-75
2022/03/15 06:08:42;;;;;;;34.13;20.00;;;5.60;99.90;;;;;;4983492;28;40196;-74
2022/03/15 06:11:09;;;;;;;37.43;22.40;;;5.60;99.90;;;;;;4965178;28;38321;-74
2022/03/15 06:13:35;;;;;;;34.20;21.73;;;5.60;99.90;;;;;;4982163;28;39247;-74
2022/03/15 06:16:02;;;;;;;33.90;23.90;;;5.60;99.90;;;;;;4968157;28;39185;-74
2022/03/15 06:18:28;;;;;;;43.97;26.50;;;5.60;99.90;;;;;;4981395;28;37863;-74
2022/03/15 06:20:57;;;;;;;42.53;24.10;;;5.70;99.90;;;;;;4983212;28;39037;-74
2022/03/15 06:23:23;;;;;;;45.97;24.23;;;5.70;99.90;;;;;;4971715;28;38666;-74
2022/03/15 06:25:49;;;;;;;44.40;24.80;;;5.70;99.90;;;;;;4985432;28;37313;-75
2022/03/15 06:28:16;;;;;;;43.53;24.37;;;5.70;99.90;;;;;;4983248;28;37050;-76
2022/03/15 06:30:42;;;;;;;42.63;23.73;;;5.80;99.90;;;;;;4982881;28;39890;-74
2022/03/15 06:33:08;;;;;;;40.23;24.20;;;5.80;99.90;;;;;;4956848;28;38880;-75
2022/03/15 06:35:34;;;;;;;40.87;24.37;;;5.90;99.90;;;;;;4981948;28;38445;-75
2022/03/15 06:38:01;;;;;;;39.87;24.33;;;5.90;99.90;;;;;;4978066;28;38991;-75
2022/03/15 06:40:29;;;;;;;41.93;23.67;;;5.90;99.90;;;;;;4984274;28;48819;-75
2022/03/15 06:42:56;;;;;;;39.03;23.70;;;5.90;99.90;;;;;;4981540;28;39045;-75
2022/03/15 06:45:23;;;;;;;39.30;21.40;;;6.00;99.90;;;;;;4983749;28;37680;-75
2022/03/15 06:47:49;;;;;;;41.13;23.97;;;6.10;99.90;;;;;;4977527;28;38261;-77
2022/03/15 06:50:16;;;;;;;36.20;20.97;;;6.20;99.90;;;;;;4974971;28;38386;-78
2022/03/15 06:52:45;;;;;;;40.10;23.27;;;6.30;99.90;;;;;;4975172;28;39300;-78
2022/03/15 06:55:12;;;;;;;34.80;21.40;;;6.40;99.90;;;;;;4979674;28;37626;-78
2022/03/15 06:57:38;;;;;;;33.17;19.80;;;6.40;99.90;;;;;;4977760;28;39174;-78
2022/03/15 07:00:06;;;;;;;34.20;19.97;;;6.50;99.90;;;;;;4978607;28;38322;-77
2022/03/15 07:02:32;;;;;;;36.50;21.83;;;6.50;99.90;;;;;;4982314;28;38164;-78
2022/03/15 07:04:58;;;;;;;32.87;19.97;;;6.60;99.90;;;;;;4982768;28;37602;-78
2022/03/15 07:07:24;;;;;;;32.47;20.60;;;6.70;99.90;;;;;;4986364;28;39798;-78
2022/03/15 07:09:52;;;;;;;36.67;19.07;;;6.70;99.90;;;;;;4976919;28;38746;-77
2022/03/15 07:12:19;;;;;;;32.80;21.67;;;6.80;99.90;;;;;;4981642;28;38101;-77
2022/03/15 07:14:45;;;;;;;28.73;19.37;;;6.80;99.90;;;;;;4984469;28;38078;-78
2022/03/15 07:17:11;;;;;;;35.50;19.47;;;6.90;99.90;;;;;;4983517;28;39031;-78
2022/03/15 07:19:38;;;;;;;34.40;19.70;;;6.90;99.90;;;;;;4985076;28;38388;-78
2022/03/15 07:22:07;;;;;;;29.63;18.13;;;6.90;99.90;;;;;;4983791;28;38418;-78
2022/03/15 07:24:35;;;;;;;27.07;15.87;;;7.00;99.90;;;;;;4970873;28;37797;-78
2022/03/15 07:27:01;;;;;;;28.57;16.40;;;7.10;99.90;;;;;;4973096;28;38994;-77
2022/03/15 07:29:28;;;;;;;24.50;16.20;;;7.20;99.90;;;;;;4985653;28;48727;-77
2022/03/15 07:31:54;;;;;;;30.13;16.07;;;7.20;99.90;;;;;;4984412;28;39685;-78
2022/03/15 07:34:21;;;;;;;26.37;16.90;;;7.30;99.90;;;;;;4982398;28;37902;-77
2022/03/15 07:36:47;;;;;;;27.70;15.90;;;7.40;99.90;;;;;;4977284;28;39915;-77
2022/03/15 07:39:13;;;;;;;28.23;15.83;;;7.40;99.90;;;;;;4987885;28;38149;-77
2022/03/15 07:41:43;;;;;;;29.80;16.47;;;7.50;99.90;;;;;;4959528;28;39857;-78
2022/03/15 07:44:10;;;;;;;22.77;15.73;;;7.60;99.90;;;;;;4974243;28;39148;-77
2022/03/15 07:46:36;;;;;;;27.97;15.40;;;7.70;99.90;;;;;;4987038;28;39123;-77
2022/03/15 07:49:04;;;;;;;32.53;15.97;;;7.80;99.90;;;;;;4988676;28;37992;-76
2022/03/15 07:51:30;;;;;;;29.73;15.70;;;7.80;99.90;;;;;;4989430;28;39022;-75
2022/03/15 07:53:56;;;;;;;25.00;15.13;;;7.90;99.90;;;;;;4974495;28;38850;-78
2022/03/15 07:56:25;;;;;;;22.30;14.67;;;7.90;99.90;;;;;;4980543;28;38348;-75
2022/03/15 07:58:51;;;;;;;30.10;15.93;;;8.00;99.90;;;;;;4987019;28;39231;-76
2022/03/15 08:01:19;;;;;;;25.97;15.33;;;8.00;99.90;;;;;;4965384;28;38451;-75
2022/03/15 08:03:45;;;;;;;23.83;14.77;;;8.10;99.90;;;;;;4988403;28;39144;-77
2022/03/15 08:06:11;;;;;;;25.53;15.77;;;8.20;99.90;;;;;;4987296;28;37505;-76
2022/03/15 08:08:37;;;;;;;24.63;14.50;;;8.30;99.90;;;;;;4979371;28;38681;-76
2022/03/15 08:11:06;;;;;;;27.83;14.20;;;8.40;99.90;;;;;;4985605;28;38227;-77
2022/03/15 08:13:34;;;;;;;23.53;15.13;;;8.50;99.90;;;;;;4973332;28;37759;-77
2022/03/15 08:16:02;;;;;;;19.97;12.47;;;8.60;99.90;;;;;;4987758;28;39292;-76
2022/03/15 08:18:28;;;;;;;20.47;13.63;;;8.70;99.90;;;;;;4990259;28;48968;-75
2022/03/15 08:20:55;;;;;;;22.17;13.10;;;8.80;99.90;;;;;;4965114;28;38682;-75
2022/03/15 08:23:22;;;;;;;24.20;12.77;;;9.00;99.90;;;;;;4986593;28;37742;-76
2022/03/15 08:25:49;;;;;;;17.87;12.13;;;9.20;99.90;;;;;;4990481;28;39487;-75
2022/03/15 08:28:15;;;;;;;22.87;12.00;;;9.30;99.90;;;;;;4991010;28;38151;-76
2022/03/15 08:30:41;;;;;;;21.87;12.70;;;9.30;99.90;;;;;;4972969;28;38369;-76
2022/03/15 08:33:10;;;;;;;22.17;12.27;;;9.40;99.90;;;;;;4985190;28;39131;-75
2022/03/15 08:35:36;;;;;;;17.73;11.60;;;9.40;99.90;;;;;;4966082;28;40249;-75
2022/03/15 08:38:05;;;;;;;20.97;10.90;;;9.40;99.90;;;;;;4987681;28;39946;-75
2022/03/15 08:40:32;;;;;;;22.85;11.68;;;9.40;99.90;;;;;;4978077;28;39595;-76
2022/03/15 08:43:00;;;;;;;25.23;11.70;;;9.50;99.90;;;;;;4987275;28;36601;-76
2022/03/15 08:45:26;;;;;;;22.60;12.33;;;9.40;99.90;;;;;;4988170;28;38956;-77
2022/03/15 08:47:52;;;;;;;17.57;11.10;;;9.40;99.90;;;;;;4979272;28;40178;-75
2022/03/15 08:50:19;;;;;;;20.00;11.02;;;9.40;99.90;;;;;;4988693;28;38911;-75
2022/03/15 08:52:47;;;;;;;18.43;10.87;;;9.30;99.90;;;;;;4988618;28;37374;-76
2022/03/15 08:55:14;;;;;;;25.17;12.90;;;9.40;99.90;;;;;;4967951;28;39432;-76
2022/03/15 08:57:41;;;;;;;20.87;11.17;;;9.40;99.90;;;;;;4968562;28;38846;-75
2022/03/15 09:00:11;;;;;;;25.70;12.77;;;9.40;99.90;;;;;;4968342;28;38111;-75
2022/03/15 09:02:38;;;;;;;27.67;12.53;;;9.30;99.90;;;;;;4978491;28;37401;-75
2022/03/15 09:05:04;;;;;;;24.13;11.50;;;9.30;99.90;;;;;;4984469;28;39897;-75
2022/03/15 09:07:31;;;;;;;20.83;11.83;;;9.20;99.90;;;;;;4969548;28;39579;-76
2022/03/15 09:09:57;;;;;;;19.80;11.90;;;9.20;99.90;;;;;;4970708;28;38147;-76
2022/03/15 09:12:24;;;;;;;21.20;12.00;;;9.10;99.90;;;;;;4970389;28;36951;-75
2022/03/15 09:14:50;;;;;;;17.67;10.70;;;9.20;99.90;;;;;;4969315;28;39819;-75
2022/03/15 09:17:16;;;;;;;20.10;11.73;;;9.20;99.90;;;;;;4962243;28;38331;-75
2022/03/15 09:19:43;;;;;;;24.60;11.57;;;9.30;99.90;;;;;;4970199;28;38673;-75
2022/03/15 09:22:09;;;;;;;23.67;12.33;;;9.30;99.90;;;;;;4971154;28;38578;-75
2022/03/15 09:24:36;;;;;;;18.30;11.00;;;9.40;99.90;;;;;;4967530;28;38507;-75
2022/03/15 09:27:03;;;;;;;20.30;12.07;;;9.50;99.90;;;;;;4963503;28;38199;-75
2022/03/15 09:29:31;;;;;;;19.43;10.83;;;9.60;99.90;;;;;;4970509;28;37863;-75
2022/03/15 09:31:57;;;;;;;18.65;10.60;;;9.70;99.90;;;;;;4970771;28;37913;-75
2022/03/15 09:34:25;;;;;;;16.97;11.60;;;9.70;99.90;;;;;;4971126;28;39272;-75
2022/03/15 09:36:51;;;;;;;16.88;11.02;;;9.90;99.90;;;;;;4970147;28;38711;-75
2022/03/15 09:39:18;;;;;;;22.70;12.00;;;9.90;99.90;;;;;;4985830;28;37346;-75
2022/03/15 09:41:48;;;;;;;22.87;11.33;;;9.90;99.90;;;;;;4984155;28;37722;-75
2022/03/15 09:44:18;;;;;;;21.88;11.93;;;9.90;99.90;;;;;;4968812;28;39847;-75
2022/03/15 09:46:52;;;;;;;21.37;11.90;;;9.90;99.90;;;;;;4984128;28;37423;-76
2022/03/15 09:49:19;;;;;;;21.85;12.32;;;9.90;99.90;;;;;;4965794;28;37383;-75
2022/03/15 09:51:47;;;;;;;15.75;11.32;;;9.90;99.90;;;;;;4971352;28;20083;-75
2022/03/15 09:54:14;;;;;;;21.50;13.07;;;9.90;99.90;;;;;;4966954;28;38678;-75
2022/03/15 09:56:42;;;;;;;17.30;11.53;;;10.00;99.90;;;;;;4984187;28;39367;-76
2022/03/15 09:59:16;;;;;;;23.85;12.50;;;9.90;99.90;;;;;;4969999;28;39023;-75
2022/03/15 10:01:50;;;;;;;18.90;10.52;;;9.90;99.90;;;;;;4968362;28;38336;-76
2022/03/15 10:04:20;;;;;;;21.70;11.07;;;9.90;99.90;;;;;;4984485;28;38000;-76
2022/03/15 10:06:47;;;;;;;20.60;11.67;;;9.90;99.90;;;;;;4984450;28;37437;-76
2022/03/15 10:09:14;;;;;;;19.90;11.10;;;9.80;99.90;;;;;;4983701;28;39796;-75
2022/03/15 10:11:41;;;;;;;19.43;10.97;;;9.90;99.90;;;;;;4982855;28;37229;-76
2022/03/15 10:14:09;;;;;;;25.23;10.37;;;10.00;99.90;;;;;;4970166;28;38919;-76
2022/03/15 10:16:41;;;;;;;18.60;10.50;;;10.10;99.90;;;;;;4969462;28;38408;-76
2022/03/15 10:19:12;;;;;;;16.10;10.40;;;10.10;99.90;;;;;;4984102;28;37450;-76
2022/03/15 10:21:55;;;;;;;19.37;10.53;;;10.10;99.90;;;;;;4964826;28;36413;-76
2022/03/15 10:24:24;;;;;;;15.57;9.70;;;10.20;99.90;;;;;;4968976;28;40364;-76
2022/03/15 10:27:02;;;;;;;22.27;10.03;;;10.20;99.90;;;;;;4964265;28;38404;-75
2022/03/15 10:29:30;;;;;;;19.60;10.90;;;10.30;99.90;;;;;;4967546;28;48590;-76
2022/03/15 10:31:57;;;;;;;16.85;9.98;;;10.50;99.90;;;;;;4970889;28;37315;-76
2022/03/15 10:34:27;;;;;;;14.63;9.55;;;10.80;99.90;;;;;;4970637;28;40389;-76
2022/03/15 10:36:54;;;;;;;15.85;9.00;;;11.00;99.90;;;;;;4984855;28;38692;-76
2022/03/15 10:39:21;;;;;;;17.38;8.50;;;11.30;99.90;;;;;;4968726;28;39646;-76
2022/03/15 10:41:50;;;;;;;14.35;8.70;;;11.30;99.90;;;;;;4969864;28;37800;-77
2022/03/15 10:44:19;;;;;;;15.00;8.25;;;11.40;99.90;;;;;;4970451;28;39026;-76
2022/03/15 10:46:57;;;;;;;13.57;9.10;;;11.40;99.90;;;;;;4986017;28;39242;-77
2022/03/15 10:49:24;;;;;;;17.80;8.40;;;11.70;99.90;;;;;;4970441;28;37841;-76
2022/03/15 10:51:50;;;;;;;15.55;7.88;;;11.70;99.90;;;;;;4967365;28;37039;-76
2022/03/15 10:54:16;;;;;;;17.40;8.25;;;11.70;99.90;;;;;;4963777;28;39155;-77
2022/03/15 10:56:58;;;;;;;19.70;8.63;;;12.00;99.90;;;;;;4964672;28;38571;-77
2022/03/15 10:59:25;;;;;;;13.45;7.07;;;12.30;99.90;;;;;;4974682;28;38658;-79
2022/03/15 11:01:52;;;;;;;12.25;6.70;;;12.30;99.90;;;;;;4984695;28;38002;-77
2022/03/15 11:04:18;;;;;;;14.52;7.35;;;12.40;99.90;;;;;;4968073;28;39643;-77
2022/03/15 11:06:50;;;;;;;13.75;8.05;;;12.30;99.90;;;;;;4969106;28;38112;-76
2022/03/15 11:09:31;;;;;;;14.82;7.20;;;12.10;99.90;;;;;;4982740;28;38127;-77
2022/03/15 11:12:06;;;;;;;15.00;7.95;;;12.20;99.90;;;;;;4969170;28;37167;-77
2022/03/15 11:14:40;;;;;;;14.43;8.93;;;12.20;99.90;;;;;;4984447;28;47104;-77
2022/03/15 11:17:13;;;;;;;20.38;8.05;;;12.10;99.90;;;;;;4970283;28;38288;-77
2022/03/15 11:19:54;;;;;;;13.38;6.93;;;12.40;99.90;;;;;;4987632;28;39984;-77
2022/03/15 11:22:23;;;;;;;14.48;8.00;;;12.70;99.90;;;;;;4963677;28;37305;-78
2022/03/15 11:25:15;;;;;;;14.95;7.85;;;12.60;99.90;;;;;;4971194;28;39712;-77
2022/03/15 11:27:44;;;;;;;17.17;7.95;;;12.60;99.90;;;;;;4971439;28;49660;-78
2022/03/15 11:30:18;;;;;;;16.33;7.22;;;12.80;99.90;;;;;;4965093;28;38779;-77
2022/03/15 11:32:46;;;;;;;10.60;7.05;;;12.70;99.90;;;;;;4967671;28;37132;-77
2022/03/15 11:35:14;;;;;;;13.25;7.68;;;13.00;99.90;;;;;;4977367;28;39347;-77
2022/03/15 11:37:42;;;;;;;14.02;7.07;;;13.00;99.90;;;;;;4969686;28;38439;-78
2022/03/15 11:40:11;;;;;;;10.82;6.57;;;12.90;99.90;;;;;;4984464;28;37244;-77
2022/03/15 11:42:42;;;;;;;13.20;6.97;;;13.10;99.90;;;;;;4967375;28;37275;-79
2022/03/15 11:45:19;;;;;;;10.32;6.82;;;13.40;99.90;;;;;;4969761;28;38695;-79
2022/03/15 11:48:00;;;;;;;11.52;5.82;;;13.70;99.90;;;;;;4985565;28;37741;-80
2022/03/15 11:50:38;;;;;;;13.00;6.00;;;13.90;99.90;;;;;;4972681;28;38332;-78
2022/03/15 11:53:09;;;;;;;12.57;6.07;;;13.60;99.90;;;;;;4966776;28;35936;-77
2022/03/15 11:55:52;;;;;;;16.27;6.22;;;13.80;99.90;;;;;;4985161;28;40678;-79
2022/03/15 11:58:29;;;;;;;10.02;5.97;;;13.70;99.90;;;;;;4970333;28;39031;-79
2022/03/15 12:01:08;;;;;;;12.10;6.18;;;14.10;99.90;;;;;;4963415;28;38361;-79
2022/03/15 12:03:51;;;;;;;13.30;6.10;;;14.20;99.90;;;;;;4984646;28;48931;-79
2022/03/15 12:06:26;;;;;;;10.65;6.35;;;14.40;99.90;;;;;;4985470;28;38861;-77
2022/03/15 12:08:55;;;;;;;9.40;5.05;;;14.60;99.90;;;;;;4960165;28;39511;-76
2022/03/15 12:11:34;;;;;;;7.57;3.95;;;14.80;99.90;;;;;;4967092;28;38582;-77
2022/03/15 12:14:16;;;;;;;9.45;4.18;;;15.00;99.90;;;;;;4964640;28;38037;-77
2022/03/15 12:16:50;;;;;;;7.82;4.00;;;14.90;99.90;;;;;;4969775;28;49012;-77
2022/03/15 12:19:35;;;;;;;7.45;3.95;;;14.80;99.90;;;;;;4970511;28;39383;-79
2022/03/15 12:22:05;;;;;;;5.05;3.20;;;14.20;99.90;;;;;;4987535;28;38070;-77
2022/03/15 12:24:38;;;;;;;5.35;3.42;;;14.50;99.90;;;;;;4986285;28;47348;-77
2022/03/15 12:27:05;;;;;;;;;;;14.40;99.90;;;;;;4986356;28;38127;-79
2022/03/15 12:29:33;;;;;;;8.23;3.83;;;14.40;99.90;;;;;;4969892;28;38675;-76
2022/03/15 12:32:18;;;;;;;6.97;4.05;;;14.30;99.90;;;;;;4983398;28;39012;-79
2022/03/15 12:34:49;;;;;;;6.25;4.35;;;14.10;99.90;;;;;;4950118;28;47321;-77
2022/03/15 12:37:16;;;;;;;8.73;4.35;;;14.10;99.90;;;;;;4982345;28;39027;-79
2022/03/15 12:39:53;;;;;;;9.63;4.05;;;13.70;99.90;;;;;;4973264;28;38321;-77
2022/03/15 12:42:23;;;;;;;8.45;4.35;;;13.80;99.90;;;;;;4985114;28;36329;-79
2022/03/15 12:44:53;;;;;;;8.10;3.97;;;14.20;99.90;;;;;;4967176;28;37681;-79
2022/03/15 12:47:22;;;;;;;4.00;2.58;;;14.70;99.90;;;;;;4985048;28;40153;-76